Nearby METAR Reports

 

KAPA - Denver/Arapahoe, Colorado, USA
Distance from station: ENE 3mi, 4km
Updated: Sat, 06/24/2017 3:53pm MDT
Mostly cloudy
Mostly cloudy
 Wind from NW
Wind: NW 8 mph , 13 km/h, Gust: 18 mph , 30 km/h
Temperature: 72°F , 22°C
Dew Point: 46°F , 8°C
Humidity: 41%
Barometer: 30.29 inHg , 1025.7 hPa
Clouds: Mostly cloudy
Visibility: 10 miles , 16 km
Cloud details: Few Clouds 5000 ft
Mostly cloudy 6000 ft
2017/06/24 21:53 KAPA 242153Z 32007G16KT 10SM FEW050 BKN060 22/08 A3029 RMK AO2 SLP209 T02220083
KBKF - Buckley Angb/Den, Colorado, USA
Distance from station: NE 14mi, 22km
Updated: Sat, 06/24/2017 3:58pm MDT
Mostly cloudy
Mostly cloudy
 Wind from NW
Wind: NW 13 mph , 20 km/h
Temperature: 73°F , 23°C
Dew Point: 48°F , 9°C
Humidity: 41%
Barometer: 30.28 inHg , 1025.4 hPa
Clouds: Mostly cloudy
Visibility: 10 miles , 16 km
Cloud details: Mostly cloudy 6000 ft
2017/06/24 21:58 KBKF 242158Z 32011KT 10SM BKN060 23/09 A3028 RMK AO2A SLP199 T02270085
 
KDEN - Denver (dia), Colorado, USA
Distance from station: NNE 24mi, 39km
Updated: Sat, 06/24/2017 3:53pm MDT
Mostly cloudy
Mostly cloudy
 Wind from NNW
Wind: NNW 12 mph , 19 km/h, Gust: 17 mph , 28 km/h
Temperature: 75°F , 24°C
Dew Point: 45°F , 7°C
Humidity: 34%
Barometer: 30.27 inHg , 1025.1 hPa
Clouds: Mostly cloudy
Visibility: 10 miles , 16 km
Cloud details: Partly cloudy 6000 ft
Mostly cloudy 8000 ft
2017/06/24 21:53 KDEN 242153Z 33010G15KT 10SM SCT060 BKN080 24/07 A3027 RMK AO2 SLP193 T02440067
KFTG - Denver F. Range, Colorado, USA
Distance from station: NE 24mi, 39km
Updated: Sat, 06/24/2017 4:16pm MDT
Overcast
Overcast
 Wind from NE
Wind: NE 12 mph , 19 km/h, Gust: 17 mph , 28 km/h
Temperature: 77°F , 25°C
Dew Point: 45°F , 7°C
Humidity: 32%
Barometer: 30.27 inHg , 1025.1 hPa
Clouds: Overcast
Visibility: 10 miles , 16 km
Cloud details: Overcast 6000 ft
2017/06/24 22:16 KFTG 242216Z AUTO 05010G15KT 10SM OVC060 25/07 A3027 RMK AO2
 
KBJC - Broomfield/Jeffc, Colorado, USA
Distance from station: NNW 26mi, 42km
Updated: Sat, 06/24/2017 4:14pm MDT
Partly cloudy
Partly cloudy
 Wind from NNE
Wind: NNE 7 mph , 11 km/h
Temperature: 72°F , 22°C
Dew Point: 43°F , 6°C
Humidity: 36%
Barometer: 30.30 inHg , 1026.1 hPa
Clouds: Partly cloudy
Visibility: 10 miles , 16 km
Cloud details: Partly cloudy 5000 ft
Partly cloudy 6500 ft
2017/06/24 22:14 KBJC 242214Z AUTO 02006KT 10SM SCT050 SCT065 22/06 A3030 RMK AO2
KMNH - Monument/Elbert, Colorado, USA
Distance from station: SSE 27mi, 43km
Updated: Sat, 06/24/2017 4:13pm MDT
Overcast
Overcast
 Wind from calm
Wind: Calm
Temperature: 63°F , 17°C
Dew Point: 43°F , 6°C
Humidity: 49%
Barometer: 30.37 inHg , 1028.4 hPa
Clouds: Overcast
Visibility: 10 miles , 16 km
Cloud details: Mostly cloudy 5000 ft
Overcast 5500 ft
2017/06/24 22:13 KMNH 242213Z AUTO 00000KT 10SM BKN050 OVC055 17/06 A3037 RMK AO2
 
KEIK - Erie Muni, Colorado, USA
Distance from station: NNW 33mi, 53km
Updated: Sat, 06/24/2017 4:14pm MDT
Mostly cloudy
Mostly cloudy
 Wind from NNE
Wind: NNE 5 mph , 7 km/h
Temperature: 75°F , 24°C
Dew Point: 45°F , 7°C
Humidity: 34%
Barometer: 30.27 inHg , 1025.1 hPa
Clouds: Mostly cloudy
Visibility: 10 miles , 16 km
Cloud details: Mostly cloudy 5500 ft
2017/06/24 22:14 KEIK 242214Z AUTO 02004KT 10SM BKN055 24/07 A3027 RMK AO2 T02380069
KBDU - Boulder Muni, Colorado, USA
Distance from station: NNW 38mi, 60km
Updated: Sat, 06/24/2017 4:16pm MDT
Partly cloudy
Partly cloudy
 Wind from NNW
Wind: NNW 3 mph , 6 km/h
Temperature: 73°F , 23°C
Dew Point: 45°F , 7°C
Humidity: 36%
Barometer: 30.28 inHg , 1025.4 hPa
Clouds: Partly cloudy
Visibility: 10 miles , 16 km
Cloud details: Partly cloudy 5500 ft
2017/06/24 22:16 KBDU 242216Z AUTO 34003KT 10SM SCT055 23/07 A3028 RMK AO2
 
KAFF - Usaf Academy/Cos, Colorado, USA
Distance from station: S 41mi, 66km
Updated: Sat, 06/24/2017 3:58pm MDT
Partly cloudy
Partly cloudy
 Wind from SSE
Wind: SSE 9 mph , 15 km/h
Temperature: 66°F , 19°C
Dew Point: 45°F , 7°C
Humidity: 46%
Barometer: 30.33 inHg , 1027.1 hPa
Clouds: Partly cloudy
Visibility: 10 miles , 16 km
Cloud details: Partly cloudy 4400 ft
2017/06/24 21:58 KAFF 242158Z AUTO 16008KT 10SM SCT044 19/07 A3033 RMK AO2 SLP207 T01930074
KLMO - Longmont/Vbrand, Colorado, USA
Distance from station: NNW 45mi, 72km
Updated: Sat, 06/24/2017 4:15pm MDT
Overcast
Overcast
 Wind from calm
Wind: Calm
Temperature: 81°F , 27°C
Dew Point: 46°F , 8°C
Humidity: 30%
Barometer: 30.29 inHg , 1025.7 hPa
Clouds: Overcast
Visibility: 10 miles , 16 km
Cloud details: Overcast 6000 ft
2017/06/24 22:15 KLMO 242215Z AUTO 00000KT 10SM OVC060 27/08 A3029 RMK AO2 T02650075
 
KFLY - Co Spngs Meadow, Colorado, USA
Distance from station: SSE 45mi, 73km
Updated: Sat, 06/24/2017 4:15pm MDT

 Wind from SSE
Wind: SSE 8 mph , 13 km/h
Temperature: 66°F , 19°C
Dew Point: 43°F , 6°C
Humidity: 43%
Barometer: 30.36 inHg , 1028.1 hPa
Visibility: 10 miles , 16 km
2017/06/24 22:15 KFLY 242215Z AUTO 15007KT 10SM 19/06 A3036 RMK AO2 T01930056
K4BM - Wilkerson Pass, Colorado, USA
Distance from station: SW 48mi, 77km
Updated: Sat, 06/24/2017 4:16pm MDT
Mostly cloudy
Mostly cloudy
 Wind from E
Wind: E 10 mph , 17 km/h, Gust: 21 mph , 33 km/h
Temperature: 54°F , 12°C
Dew Point: 41°F , 5°C
Humidity: 63%
Barometer: 30.60 inHg , 1036.2 hPa
Clouds: Mostly cloudy
Visibility: 10 miles , 16 km
Cloud details: Mostly cloudy 1200 ft
Mostly cloudy 9000 ft
2017/06/24 22:16 K4BM 242216Z AUTO 08009G18KT 020V100 10SM BKN012 BKN090 12/05 A3060 RMK AO2
 
K0CO - Berthoud Pass, Colorado, USA
Distance from station: WNW 49mi, 79km
Updated: Sat, 06/24/2017 4:16pm MDT
Partly cloudy
Partly cloudy
 Wind from NW
Wind: NW 26 mph , 43 km/h, Gust: 33 mph , 54 km/h
Temperature: 50°F , 10°C
Wind Chill: 43°F , 6°C
Dew Point: 37°F , 3°C
Humidity: 62%
Barometer: 30.65 inHg , 1037.9 hPa
Clouds: Partly cloudy
Visibility: 10 miles , 16 km
Cloud details: Partly cloudy 8500 ft
2017/06/24 22:16 K0CO 242216Z AUTO 31023G29KT 10SM SCT085 10/03 A3065 RMK AO2